CheckWX is a tool to help pilots better visualize weather data.  It is not intended as a substitute for an official pre-flight weather briefing.

18:40:42 UTC

KOGD TAF
Ogden Hinckley Airport
Ogden, Utah, USA
KOGD 112320Z 1200/1224 VRB05KT P6SM SKC FM120400 17007KT P6SM SKC FM121600 VRB05KT P6SM FEW200

Jul-12@
00:00 UTC

Jul-12 @ 00:00 UTC

Jul-12@
04:00 UTC

Jul-12 @ 04:00 UTC

TAF KOGD 112320Z 1200/1224 VRB05KT P6SM SKC

Expired

Wind
  • Variable at 5 KTS
Cloud Levels
  • Clear skies

Jul-12@
04:00 UTC

Jul-12 @ 04:00 UTC

Jul-12@
16:00 UTC

Jul-12 @ 16:00 UTC

FM120400 17007KT P6SM SKC

Expired

Wind
  • 170° at 7 KTS
Cloud Levels
  • Clear skies

Jul-12@
16:00 UTC

Jul-12 @ 16:00 UTC

Jul-13@
00:00 UTC

Jul-13 @ 00:00 UTC

FM121600 VRB05KT P6SM FEW200

From

From Standard forecast or significant change

Wind
  • Variable at 5 KTS
Cloud Levels
  • Few at 20,000' AGL